sensor_id;sensor_type;location;lat;lon;timestamp;P1;durP1;ratioP1;P2;durP2;ratioP2
23628;SDS011;11991;57.150;-2.134;2022-10-31T00:01:13;0.82;;;0.80;;
23628;SDS011;11991;57.150;-2.134;2022-10-31T00:03:44;1.85;;;1.10;;
23628;SDS011;11991;57.150;-2.134;2022-10-31T00:06:11;0.60;;;0.60;;
23628;SDS011;11991;57.150;-2.134;2022-10-31T00:08:38;0.77;;;0.77;;
23628;SDS011;11991;57.150;-2.134;2022-10-31T00:11:09;1.45;;;0.85;;
23628;SDS011;11991;57.150;-2.134;2022-10-31T00:13:37;2.92;;;1.75;;
23628;SDS011;11991;57.150;-2.134;2022-10-31T00:16:05;1.52;;;1.10;;
23628;SDS011;11991;57.150;-2.134;2022-10-31T00:18:39;1.75;;;0.82;;
23628;SDS011;11991;57.150;-2.134;2022-10-31T00:21:06;1.27;;;0.80;;
23628;SDS011;11991;57.150;-2.134;2022-10-31T00:23:33;1.73;;;0.90;;
23628;SDS011;11991;57.150;-2.134;2022-10-31T00:26:03;1.75;;;1.00;;
23628;SDS011;11991;57.150;-2.134;2022-10-31T00:28:32;0.88;;;0.70;;
23628;SDS011;11991;57.150;-2.134;2022-10-31T00:31:00;1.77;;;0.90;;
23628;SDS011;11991;57.150;-2.134;2022-10-31T00:33:28;1.17;;;0.63;;
23628;SDS011;11991;57.150;-2.134;2022-10-31T00:35:56;1.60;;;1.05;;
23628;SDS011;11991;57.150;-2.134;2022-10-31T00:38:23;1.60;;;0.90;;
23628;SDS011;11991;57.150;-2.134;2022-10-31T00:40:50;1.50;;;0.95;;
23628;SDS011;11991;57.150;-2.134;2022-10-31T00:43:18;2.03;;;1.10;;
23628;SDS011;11991;57.150;-2.134;2022-10-31T00:45:45;1.38;;;1.15;;
23628;SDS011;11991;57.150;-2.134;2022-10-31T00:48:12;1.40;;;1.10;;
23628;SDS011;11991;57.150;-2.134;2022-10-31T00:50:41;2.58;;;1.23;;
23628;SDS011;11991;57.150;-2.134;2022-10-31T00:53:08;0.88;;;0.82;;
23628;SDS011;11991;57.150;-2.134;2022-10-31T00:55:36;1.98;;;1.00;;
23628;SDS011;11991;57.150;-2.134;2022-10-31T00:58:03;2.05;;;1.20;;
23628;SDS011;11991;57.150;-2.134;2022-10-31T01:00:31;1.05;;;0.93;;
23628;SDS011;11991;57.150;-2.134;2022-10-31T01:02:58;1.83;;;1.00;;
23628;SDS011;11991;57.150;-2.134;2022-10-31T01:05:26;1.50;;;1.38;;
23628;SDS011;11991;57.150;-2.134;2022-10-31T01:07:53;2.67;;;1.25;;
23628;SDS011;11991;57.150;-2.134;2022-10-31T01:10:21;1.98;;;1.20;;
23628;SDS011;11991;57.150;-2.134;2022-10-31T01:12:50;0.88;;;0.77;;
23628;SDS011;11991;57.150;-2.134;2022-10-31T01:15:20;1.33;;;1.20;;
23628;SDS011;11991;57.150;-2.134;2022-10-31T01:17:49;3.53;;;1.35;;
23628;SDS011;11991;57.150;-2.134;2022-10-31T01:20:16;1.05;;;0.82;;
23628;SDS011;11991;57.150;-2.134;2022-10-31T01:22:44;1.23;;;1.10;;
23628;SDS011;11991;57.150;-2.134;2022-10-31T01:25:11;1.27;;;0.73;;
23628;SDS011;11991;57.150;-2.134;2022-10-31T01:27:39;1.83;;;1.00;;
23628;SDS011;11991;57.150;-2.134;2022-10-31T01:30:06;0.68;;;0.68;;
23628;SDS011;11991;57.150;-2.134;2022-10-31T01:32:34;1.10;;;1.00;;
23628;SDS011;11991;57.150;-2.134;2022-10-31T01:35:01;1.13;;;0.85;;
23628;SDS011;11991;57.150;-2.134;2022-10-31T01:37:30;1.65;;;0.75;;
23628;SDS011;11991;57.150;-2.134;2022-10-31T01:39:57;1.52;;;0.80;;
23628;SDS011;11991;57.150;-2.134;2022-10-31T01:42:25;1.67;;;0.82;;
23628;SDS011;11991;57.150;-2.134;2022-10-31T01:44:53;2.63;;;0.98;;
23628;SDS011;11991;57.150;-2.134;2022-10-31T01:47:34;1.27;;;1.05;;
23628;SDS011;11991;57.150;-2.134;2022-10-31T01:50:10;1.23;;;0.60;;
23628;SDS011;11991;57.150;-2.134;2022-10-31T01:52:48;0.73;;;0.73;;
23628;SDS011;11991;57.150;-2.134;2022-10-31T01:55:19;1.60;;;0.93;;
23628;SDS011;11991;57.150;-2.134;2022-10-31T01:57:56;1.25;;;1.05;;
23628;SDS011;11991;57.150;-2.134;2022-10-31T02:00:27;1.02;;;0.93;;
23628;SDS011;11991;57.150;-2.134;2022-10-31T02:02:54;0.70;;;0.70;;
23628;SDS011;11991;57.150;-2.134;2022-10-31T02:05:27;1.85;;;0.90;;
23628;SDS011;11991;57.150;-2.134;2022-10-31T02:10:32;0.77;;;0.70;;
23628;SDS011;11991;57.150;-2.134;2022-10-31T02:13:04;0.95;;;0.50;;
23628;SDS011;11991;57.150;-2.134;2022-10-31T02:15:39;1.40;;;0.90;;
23628;SDS011;11991;57.150;-2.134;2022-10-31T02:18:08;0.80;;;0.70;;
23628;SDS011;11991;57.150;-2.134;2022-10-31T02:20:52;0.70;;;0.70;;
23628;SDS011;11991;57.150;-2.134;2022-10-31T02:23:38;0.80;;;0.70;;
23628;SDS011;11991;57.150;-2.134;2022-10-31T02:32:10;2.25;;;0.75;;
23628;SDS011;11991;57.150;-2.134;2022-10-31T02:40:39;2.10;;;1.30;;
23628;SDS011;11991;57.150;-2.134;2022-10-31T02:48:36;1.65;;;0.73;;
23628;SDS011;11991;57.150;-2.134;2022-10-31T02:51:06;0.75;;;0.65;;
23628;SDS011;11991;57.150;-2.134;2022-10-31T02:53:35;0.90;;;0.80;;
23628;SDS011;11991;57.150;-2.134;2022-10-31T02:56:11;2.08;;;0.80;;
23628;SDS011;11991;57.150;-2.134;2022-10-31T02:58:42;2.88;;;1.00;;
23628;SDS011;11991;57.150;-2.134;2022-10-31T03:09:44;2.78;;;1.13;;
23628;SDS011;11991;57.150;-2.134;2022-10-31T03:12:20;1.45;;;0.85;;
23628;SDS011;11991;57.150;-2.134;2022-10-31T03:17:42;1.48;;;0.80;;
23628;SDS011;11991;57.150;-2.134;2022-10-31T03:20:12;2.70;;;1.13;;
23628;SDS011;11991;57.150;-2.134;2022-10-31T03:22:41;2.58;;;1.00;;
23628;SDS011;11991;57.150;-2.134;2022-10-31T03:25:10;1.48;;;1.00;;
23628;SDS011;11991;57.150;-2.134;2022-10-31T03:27:39;1.95;;;0.90;;
23628;SDS011;11991;57.150;-2.134;2022-10-31T03:30:11;0.95;;;0.70;;
23628;SDS011;11991;57.150;-2.134;2022-10-31T03:32:52;1.83;;;0.80;;
23628;SDS011;11991;57.150;-2.134;2022-10-31T03:35:23;0.75;;;0.65;;
23628;SDS011;11991;57.150;-2.134;2022-10-31T03:37:52;1.65;;;0.80;;
23628;SDS011;11991;57.150;-2.134;2022-10-31T03:40:22;1.00;;;0.70;;
23628;SDS011;11991;57.150;-2.134;2022-10-31T03:42:55;1.52;;;0.60;;
23628;SDS011;11991;57.150;-2.134;2022-10-31T03:45:28;1.02;;;0.70;;
23628;SDS011;11991;57.150;-2.134;2022-10-31T03:48:00;1.30;;;0.90;;
23628;SDS011;11991;57.150;-2.134;2022-10-31T03:50:29;2.42;;;0.98;;
23628;SDS011;11991;57.150;-2.134;2022-10-31T03:53:34;0.88;;;0.68;;
23628;SDS011;11991;57.150;-2.134;2022-10-31T03:56:15;1.80;;;1.00;;
23628;SDS011;11991;57.150;-2.134;2022-10-31T03:59:36;5.15;;;1.15;;
23628;SDS011;11991;57.150;-2.134;2022-10-31T04:01:42;1.75;;;0.70;;
23628;SDS011;11991;57.150;-2.134;2022-10-31T04:04:14;1.95;;;0.90;;
23628;SDS011;11991;57.150;-2.134;2022-10-31T04:06:42;2.13;;;0.80;;
23628;SDS011;11991;57.150;-2.134;2022-10-31T04:09:12;4.43;;;1.10;;
23628;SDS011;11991;57.150;-2.134;2022-10-31T04:11:44;1.25;;;0.75;;
23628;SDS011;11991;57.150;-2.134;2022-10-31T04:14:29;2.25;;;0.80;;
23628;SDS011;11991;57.150;-2.134;2022-10-31T04:16:59;2.45;;;0.80;;
23628;SDS011;11991;57.150;-2.134;2022-10-31T04:19:34;5.00;;;0.90;;
23628;SDS011;11991;57.150;-2.134;2022-10-31T04:22:01;3.72;;;0.82;;
23628;SDS011;11991;57.150;-2.134;2022-10-31T04:24:29;1.90;;;0.80;;
23628;SDS011;11991;57.150;-2.134;2022-10-31T04:26:56;3.42;;;0.90;;
23628;SDS011;11991;57.150;-2.134;2022-10-31T04:29:24;1.90;;;0.80;;
23628;SDS011;11991;57.150;-2.134;2022-10-31T04:31:51;3.08;;;0.60;;
23628;SDS011;11991;57.150;-2.134;2022-10-31T04:34:18;1.33;;;0.73;;
23628;SDS011;11991;57.150;-2.134;2022-10-31T04:36:46;1.63;;;0.70;;
23628;SDS011;11991;57.150;-2.134;2022-10-31T04:39:15;0.90;;;0.60;;
23628;SDS011;11991;57.150;-2.134;2022-10-31T04:42:00;1.50;;;0.82;;
23628;SDS011;11991;57.150;-2.134;2022-10-31T04:44:27;2.97;;;0.88;;
23628;SDS011;11991;57.150;-2.134;2022-10-31T04:46:59;3.63;;;1.08;;
23628;SDS011;11991;57.150;-2.134;2022-10-31T04:49:26;2.47;;;0.80;;
23628;SDS011;11991;57.150;-2.134;2022-10-31T04:51:53;1.58;;;0.70;;
23628;SDS011;11991;57.150;-2.134;2022-10-31T04:54:20;1.80;;;0.63;;
23628;SDS011;11991;57.150;-2.134;2022-10-31T04:57:25;1.17;;;0.80;;
23628;SDS011;11991;57.150;-2.134;2022-10-31T04:59:54;1.58;;;1.02;;
23628;SDS011;11991;57.150;-2.134;2022-10-31T05:02:23;0.57;;;0.50;;
23628;SDS011;11991;57.150;-2.134;2022-10-31T05:04:54;1.35;;;0.55;;
23628;SDS011;11991;57.150;-2.134;2022-10-31T05:07:21;2.85;;;0.80;;
23628;SDS011;11991;57.150;-2.134;2022-10-31T05:09:49;0.73;;;0.70;;
23628;SDS011;11991;57.150;-2.134;2022-10-31T05:12:18;0.77;;;0.60;;
23628;SDS011;11991;57.150;-2.134;2022-10-31T05:15:05;1.00;;;0.60;;
23628;SDS011;11991;57.150;-2.134;2022-10-31T05:17:32;1.10;;;0.50;;
23628;SDS011;11991;57.150;-2.134;2022-10-31T05:20:19;1.65;;;0.52;;
23628;SDS011;11991;57.150;-2.134;2022-10-31T05:23:15;1.13;;;0.55;;
23628;SDS011;11991;57.150;-2.134;2022-10-31T05:25:42;2.15;;;0.60;;
23628;SDS011;11991;57.150;-2.134;2022-10-31T05:28:10;1.50;;;0.68;;
23628;SDS011;11991;57.150;-2.134;2022-10-31T05:30:38;1.63;;;0.65;;
23628;SDS011;11991;57.150;-2.134;2022-10-31T05:33:09;1.98;;;0.73;;
23628;SDS011;11991;57.150;-2.134;2022-10-31T05:35:55;0.50;;;0.40;;
23628;SDS011;11991;57.150;-2.134;2022-10-31T05:38:25;0.82;;;0.70;;
23628;SDS011;11991;57.150;-2.134;2022-10-31T05:40:55;1.02;;;0.50;;
23628;SDS011;11991;57.150;-2.134;2022-10-31T05:43:29;1.77;;;0.70;;
23628;SDS011;11991;57.150;-2.134;2022-10-31T05:45:57;5.72;;;1.23;;
23628;SDS011;11991;57.150;-2.134;2022-10-31T05:49:02;1.65;;;0.60;;
23628;SDS011;11991;57.150;-2.134;2022-10-31T05:51:48;2.95;;;1.00;;
23628;SDS011;11991;57.150;-2.134;2022-10-31T05:54:17;2.90;;;0.70;;
23628;SDS011;11991;57.150;-2.134;2022-10-31T05:56:45;2.72;;;0.63;;
23628;SDS011;11991;57.150;-2.134;2022-10-31T05:59:12;2.90;;;0.90;;
23628;SDS011;11991;57.150;-2.134;2022-10-31T06:01:39;4.03;;;0.80;;
23628;SDS011;11991;57.150;-2.134;2022-10-31T06:04:21;1.88;;;0.95;;
23628;SDS011;11991;57.150;-2.134;2022-10-31T06:06:48;4.80;;;1.15;;
23628;SDS011;11991;57.150;-2.134;2022-10-31T06:09:16;4.88;;;1.20;;
23628;SDS011;11991;57.150;-2.134;2022-10-31T06:11:44;4.25;;;1.35;;
23628;SDS011;11991;57.150;-2.134;2022-10-31T06:14:34;3.60;;;1.08;;
23628;SDS011;11991;57.150;-2.134;2022-10-31T06:17:02;2.22;;;0.93;;
23628;SDS011;11991;57.150;-2.134;2022-10-31T06:19:47;1.45;;;0.93;;
23628;SDS011;11991;57.150;-2.134;2022-10-31T06:22:19;7.13;;;1.77;;
23628;SDS011;11991;57.150;-2.134;2022-10-31T06:24:46;3.88;;;1.10;;
23628;SDS011;11991;57.150;-2.134;2022-10-31T06:27:28;3.67;;;0.90;;
23628;SDS011;11991;57.150;-2.134;2022-10-31T06:29:58;3.08;;;1.08;;
23628;SDS011;11991;57.150;-2.134;2022-10-31T06:32:34;5.70;;;1.55;;
23628;SDS011;11991;57.150;-2.134;2022-10-31T06:35:01;8.70;;;2.03;;
23628;SDS011;11991;57.150;-2.134;2022-10-31T06:37:28;4.50;;;1.40;;
23628;SDS011;11991;57.150;-2.134;2022-10-31T06:40:02;6.30;;;1.38;;
23628;SDS011;11991;57.150;-2.134;2022-10-31T06:42:36;5.13;;;1.83;;
23628;SDS011;11991;57.150;-2.134;2022-10-31T06:45:03;8.23;;;1.80;;
23628;SDS011;11991;57.150;-2.134;2022-10-31T06:47:52;7.80;;;1.67;;
23628;SDS011;11991;57.150;-2.134;2022-10-31T06:51:00;5.45;;;1.27;;
23628;SDS011;11991;57.150;-2.134;2022-10-31T06:53:27;6.45;;;1.98;;
23628;SDS011;11991;57.150;-2.134;2022-10-31T06:55:56;7.68;;;2.60;;
23628;SDS011;11991;57.150;-2.134;2022-10-31T06:58:25;8.32;;;2.10;;
23628;SDS011;11991;57.150;-2.134;2022-10-31T07:01:01;6.95;;;1.77;;
23628;SDS011;11991;57.150;-2.134;2022-10-31T07:03:28;10.90;;;2.95;;
23628;SDS011;11991;57.150;-2.134;2022-10-31T07:05:56;9.10;;;2.25;;
23628;SDS011;11991;57.150;-2.134;2022-10-31T07:08:24;10.45;;;2.90;;
23628;SDS011;11991;57.150;-2.134;2022-10-31T07:10:55;9.32;;;2.05;;
23628;SDS011;11991;57.150;-2.134;2022-10-31T07:13:24;10.50;;;2.20;;
23628;SDS011;11991;57.150;-2.134;2022-10-31T07:16:06;9.27;;;1.92;;
23628;SDS011;11991;57.150;-2.134;2022-10-31T07:18:35;7.00;;;2.00;;
23628;SDS011;11991;57.150;-2.134;2022-10-31T07:21:03;7.32;;;1.73;;
23628;SDS011;11991;57.150;-2.134;2022-10-31T07:23:30;8.77;;;2.22;;
23628;SDS011;11991;57.150;-2.134;2022-10-31T07:26:19;4.43;;;1.40;;
23628;SDS011;11991;57.150;-2.134;2022-10-31T07:28:47;6.95;;;1.73;;
23628;SDS011;11991;57.150;-2.134;2022-10-31T07:34:18;6.95;;;1.80;;
23628;SDS011;11991;57.150;-2.134;2022-10-31T07:37:05;8.80;;;2.28;;
23628;SDS011;11991;57.150;-2.134;2022-10-31T07:39:32;5.45;;;1.80;;
23628;SDS011;11991;57.150;-2.134;2022-10-31T07:41:59;6.05;;;2.65;;
23628;SDS011;11991;57.150;-2.134;2022-10-31T07:44:27;4.75;;;1.65;;
23628;SDS011;11991;57.150;-2.134;2022-10-31T07:47:20;5.65;;;1.80;;
23628;SDS011;11991;57.150;-2.134;2022-10-31T07:50:27;5.35;;;1.95;;
23628;SDS011;11991;57.150;-2.134;2022-10-31T07:53:17;3.15;;;1.42;;
23628;SDS011;11991;57.150;-2.134;2022-10-31T07:56:00;5.32;;;2.28;;
23628;SDS011;11991;57.150;-2.134;2022-10-31T07:58:29;6.30;;;2.28;;
23628;SDS011;11991;57.150;-2.134;2022-10-31T08:00:57;2.85;;;1.52;;
23628;SDS011;11991;57.150;-2.134;2022-10-31T08:03:33;6.07;;;1.60;;
23628;SDS011;11991;57.150;-2.134;2022-10-31T08:06:09;4.68;;;1.88;;
23628;SDS011;11991;57.150;-2.134;2022-10-31T08:08:45;8.10;;;2.40;;
23628;SDS011;11991;57.150;-2.134;2022-10-31T08:11:12;7.50;;;2.13;;
23628;SDS011;11991;57.150;-2.134;2022-10-31T08:13:39;8.02;;;2.25;;
23628;SDS011;11991;57.150;-2.134;2022-10-31T08:16:08;4.85;;;1.50;;
23628;SDS011;11991;57.150;-2.134;2022-10-31T08:18:43;4.20;;;1.20;;
23628;SDS011;11991;57.150;-2.134;2022-10-31T08:21:12;3.78;;;1.88;;
23628;SDS011;11991;57.150;-2.134;2022-10-31T08:23:41;2.03;;;0.90;;
23628;SDS011;11991;57.150;-2.134;2022-10-31T08:26:08;5.75;;;1.55;;
23628;SDS011;11991;57.150;-2.134;2022-10-31T08:28:36;2.15;;;1.00;;
23628;SDS011;11991;57.150;-2.134;2022-10-31T08:31:03;3.25;;;1.52;;
23628;SDS011;11991;57.150;-2.134;2022-10-31T08:33:40;1.75;;;1.00;;
23628;SDS011;11991;57.150;-2.134;2022-10-31T08:36:26;8.02;;;2.25;;
23628;SDS011;11991;57.150;-2.134;2022-10-31T08:38:54;1.98;;;1.00;;
23628;SDS011;11991;57.150;-2.134;2022-10-31T08:41:28;2.83;;;1.42;;
23628;SDS011;11991;57.150;-2.134;2022-10-31T08:43:57;3.97;;;1.85;;
23628;SDS011;11991;57.150;-2.134;2022-10-31T08:46:24;3.13;;;1.20;;
23628;SDS011;11991;57.150;-2.134;2022-10-31T08:48:52;5.15;;;1.75;;
23628;SDS011;11991;57.150;-2.134;2022-10-31T08:51:19;6.13;;;1.85;;
23628;SDS011;11991;57.150;-2.134;2022-10-31T08:53:51;1.95;;;1.33;;
23628;SDS011;11991;57.150;-2.134;2022-10-31T08:56:56;4.88;;;1.58;;
23628;SDS011;11991;57.150;-2.134;2022-10-31T08:59:38;3.88;;;1.52;;
23628;SDS011;11991;57.150;-2.134;2022-10-31T09:02:43;3.60;;;1.25;;
23628;SDS011;11991;57.150;-2.134;2022-10-31T09:05:14;2.47;;;1.13;;
23628;SDS011;11991;57.150;-2.134;2022-10-31T09:07:41;3.60;;;1.30;;
23628;SDS011;11991;57.150;-2.134;2022-10-31T09:10:10;6.57;;;1.73;;
23628;SDS011;11991;57.150;-2.134;2022-10-31T09:12:38;9.05;;;2.80;;
23628;SDS011;11991;57.150;-2.134;2022-10-31T09:15:30;4.90;;;1.70;;
23628;SDS011;11991;57.150;-2.134;2022-10-31T09:18:12;8.82;;;2.17;;
23628;SDS011;11991;57.150;-2.134;2022-10-31T09:20:53;7.07;;;2.42;;
23628;SDS011;11991;57.150;-2.134;2022-10-31T09:23:23;5.28;;;1.63;;
23628;SDS011;11991;57.150;-2.134;2022-10-31T09:25:52;9.57;;;3.13;;
23628;SDS011;11991;57.150;-2.134;2022-10-31T09:28:38;6.50;;;1.85;;
23628;SDS011;11991;57.150;-2.134;2022-10-31T09:31:11;6.25;;;2.65;;
23628;SDS011;11991;57.150;-2.134;2022-10-31T09:34:01;6.00;;;2.08;;
23628;SDS011;11991;57.150;-2.134;2022-10-31T09:36:29;6.97;;;2.15;;
23628;SDS011;11991;57.150;-2.134;2022-10-31T09:38:57;3.60;;;1.50;;
23628;SDS011;11991;57.150;-2.134;2022-10-31T09:41:28;4.30;;;1.70;;
23628;SDS011;11991;57.150;-2.134;2022-10-31T09:47:31;5.85;;;1.55;;
23628;SDS011;11991;57.150;-2.134;2022-10-31T09:56:17;4.75;;;2.25;;
23628;SDS011;11991;57.150;-2.134;2022-10-31T09:58:51;3.42;;;1.65;;
23628;SDS011;11991;57.150;-2.134;2022-10-31T10:08:07;7.82;;;2.55;;
23628;SDS011;11991;57.150;-2.134;2022-10-31T10:16:33;8.57;;;3.00;;
23628;SDS011;11991;57.150;-2.134;2022-10-31T10:30:26;7.45;;;2.15;;
23628;SDS011;11991;57.150;-2.134;2022-10-31T10:33:51;5.90;;;1.88;;
23628;SDS011;11991;57.150;-2.134;2022-10-31T10:36:04;6.15;;;2.38;;
23628;SDS011;11991;57.150;-2.134;2022-10-31T10:41:16;3.90;;;1.45;;
23628;SDS011;11991;57.150;-2.134;2022-10-31T10:43:44;6.07;;;1.88;;
23628;SDS011;11991;57.150;-2.134;2022-10-31T10:46:21;6.65;;;1.73;;
23628;SDS011;11991;57.150;-2.134;2022-10-31T10:51:52;12.88;;;2.88;;
23628;SDS011;11991;57.150;-2.134;2022-10-31T10:57:27;9.82;;;2.75;;
23628;SDS011;11991;57.150;-2.134;2022-10-31T10:59:58;13.27;;;3.15;;
23628;SDS011;11991;57.150;-2.134;2022-10-31T11:02:31;7.78;;;2.65;;
23628;SDS011;11991;57.150;-2.134;2022-10-31T11:05:00;9.43;;;2.33;;
23628;SDS011;11991;57.150;-2.134;2022-10-31T11:07:38;8.05;;;2.33;;
23628;SDS011;11991;57.150;-2.134;2022-10-31T11:10:10;5.72;;;2.05;;
23628;SDS011;11991;57.150;-2.134;2022-10-31T11:12:43;5.32;;;2.00;;
23628;SDS011;11991;57.150;-2.134;2022-10-31T11:15:19;5.15;;;1.60;;
23628;SDS011;11991;57.150;-2.134;2022-10-31T11:17:49;4.53;;;1.95;;
23628;SDS011;11991;57.150;-2.134;2022-10-31T11:22:47;3.80;;;1.85;;
23628;SDS011;11991;57.150;-2.134;2022-10-31T11:25:24;11.60;;;2.97;;
23628;SDS011;11991;57.150;-2.134;2022-10-31T11:28:03;9.27;;;2.75;;
23628;SDS011;11991;57.150;-2.134;2022-10-31T11:31:11;5.63;;;1.80;;
23628;SDS011;11991;57.150;-2.134;2022-10-31T11:33:36;6.65;;;2.40;;
23628;SDS011;11991;57.150;-2.134;2022-10-31T11:39:05;6.13;;;2.40;;
23628;SDS011;11991;57.150;-2.134;2022-10-31T11:41:48;10.00;;;2.22;;
23628;SDS011;11991;57.150;-2.134;2022-10-31T11:44:26;6.10;;;2.50;;
23628;SDS011;11991;57.150;-2.134;2022-10-31T11:46:56;8.43;;;3.15;;
23628;SDS011;11991;57.150;-2.134;2022-10-31T11:49:29;8.30;;;2.35;;
23628;SDS011;11991;57.150;-2.134;2022-10-31T11:52:06;6.55;;;2.08;;
23628;SDS011;11991;57.150;-2.134;2022-10-31T11:54:47;7.00;;;2.70;;
23628;SDS011;11991;57.150;-2.134;2022-10-31T12:00:32;9.13;;;2.95;;
23628;SDS011;11991;57.150;-2.134;2022-10-31T12:05:54;5.63;;;1.75;;
23628;SDS011;11991;57.150;-2.134;2022-10-31T12:08:32;4.85;;;2.22;;
23628;SDS011;11991;57.150;-2.134;2022-10-31T12:14:25;3.70;;;1.58;;
23628;SDS011;11991;57.150;-2.134;2022-10-31T12:17:08;9.55;;;2.80;;
23628;SDS011;11991;57.150;-2.134;2022-10-31T12:25:45;5.63;;;2.55;;
23628;SDS011;11991;57.150;-2.134;2022-10-31T12:30:58;4.60;;;1.65;;
23628;SDS011;11991;57.150;-2.134;2022-10-31T12:39:30;11.77;;;4.05;;
23628;SDS011;11991;57.150;-2.134;2022-10-31T12:53:45;8.38;;;3.28;;
23628;SDS011;11991;57.150;-2.134;2022-10-31T12:56:38;6.85;;;2.80;;
23628;SDS011;11991;57.150;-2.134;2022-10-31T12:59:15;8.27;;;2.97;;
23628;SDS011;11991;57.150;-2.134;2022-10-31T13:02:00;7.63;;;2.65;;
23628;SDS011;11991;57.150;-2.134;2022-10-31T13:04:55;5.20;;;2.13;;
23628;SDS011;11991;57.150;-2.134;2022-10-31T13:07:36;4.88;;;1.95;;
23628;SDS011;11991;57.150;-2.134;2022-10-31T13:10:35;8.82;;;3.15;;
23628;SDS011;11991;57.150;-2.134;2022-10-31T13:13:09;12.90;;;2.80;;
23628;SDS011;11991;57.150;-2.134;2022-10-31T13:16:08;9.20;;;2.63;;
23628;SDS011;11991;57.150;-2.134;2022-10-31T13:21:53;7.45;;;2.97;;
23628;SDS011;11991;57.150;-2.134;2022-10-31T13:24:53;7.72;;;2.97;;
23628;SDS011;11991;57.150;-2.134;2022-10-31T13:27:30;8.48;;;2.60;;
23628;SDS011;11991;57.150;-2.134;2022-10-31T13:46:40;10.50;;;3.78;;
23628;SDS011;11991;57.150;-2.134;2022-10-31T13:49:42;10.77;;;3.45;;
23628;SDS011;11991;57.150;-2.134;2022-10-31T13:54:39;8.93;;;3.22;;
23628;SDS011;11991;57.150;-2.134;2022-10-31T13:57:29;4.13;;;2.38;;
23628;SDS011;11991;57.150;-2.134;2022-10-31T14:00:22;5.00;;;2.33;;
23628;SDS011;11991;57.150;-2.134;2022-10-31T14:02:53;9.55;;;3.53;;
23628;SDS011;11991;57.150;-2.134;2022-10-31T14:05:29;6.95;;;2.72;;
23628;SDS011;11991;57.150;-2.134;2022-10-31T14:08:01;7.15;;;2.65;;
23628;SDS011;11991;57.150;-2.134;2022-10-31T14:10:31;7.32;;;2.58;;
23628;SDS011;11991;57.150;-2.134;2022-10-31T14:16:18;5.10;;;2.28;;
23628;SDS011;11991;57.150;-2.134;2022-10-31T14:19:02;13.13;;;4.00;;
23628;SDS011;11991;57.150;-2.134;2022-10-31T14:21:37;4.50;;;1.98;;
23628;SDS011;11991;57.150;-2.134;2022-10-31T14:26:54;6.82;;;2.85;;
23628;SDS011;11991;57.150;-2.134;2022-10-31T14:29:24;8.13;;;3.00;;
23628;SDS011;11991;57.150;-2.134;2022-10-31T14:34:41;4.50;;;1.90;;
23628;SDS011;11991;57.150;-2.134;2022-10-31T14:51:25;4.72;;;2.00;;
23628;SDS011;11991;57.150;-2.134;2022-10-31T14:54:00;3.33;;;1.80;;
23628;SDS011;11991;57.150;-2.134;2022-10-31T14:56:29;6.03;;;2.80;;
23628;SDS011;11991;57.150;-2.134;2022-10-31T14:59:00;7.85;;;2.92;;
23628;SDS011;11991;57.150;-2.134;2022-10-31T15:01:32;9.05;;;3.15;;
23628;SDS011;11991;57.150;-2.134;2022-10-31T15:04:14;7.57;;;2.95;;
23628;SDS011;11991;57.150;-2.134;2022-10-31T15:06:52;14.93;;;4.43;;
23628;SDS011;11991;57.150;-2.134;2022-10-31T15:09:34;7.28;;;3.33;;
23628;SDS011;11991;57.150;-2.134;2022-10-31T15:14:54;6.82;;;2.38;;
23628;SDS011;11991;57.150;-2.134;2022-10-31T15:17:23;11.75;;;3.42;;
23628;SDS011;11991;57.150;-2.134;2022-10-31T15:19:52;11.25;;;4.18;;
23628;SDS011;11991;57.150;-2.134;2022-10-31T15:22:23;13.48;;;4.05;;
23628;SDS011;11991;57.150;-2.134;2022-10-31T15:24:54;12.70;;;4.10;;
23628;SDS011;11991;57.150;-2.134;2022-10-31T15:27:23;10.48;;;3.85;;
23628;SDS011;11991;57.150;-2.134;2022-10-31T15:29:52;6.40;;;2.45;;
23628;SDS011;11991;57.150;-2.134;2022-10-31T15:32:27;12.23;;;3.63;;
23628;SDS011;11991;57.150;-2.134;2022-10-31T15:34:55;8.23;;;3.40;;
23628;SDS011;11991;57.150;-2.134;2022-10-31T15:37:24;12.77;;;3.67;;
23628;SDS011;11991;57.150;-2.134;2022-10-31T15:39:52;5.15;;;2.30;;
23628;SDS011;11991;57.150;-2.134;2022-10-31T15:44:54;8.93;;;3.10;;
23628;SDS011;11991;57.150;-2.134;2022-10-31T15:47:29;5.35;;;2.55;;
23628;SDS011;11991;57.150;-2.134;2022-10-31T15:49:59;7.78;;;3.22;;
23628;SDS011;11991;57.150;-2.134;2022-10-31T15:52:38;9.90;;;2.85;;
23628;SDS011;11991;57.150;-2.134;2022-10-31T15:55:18;7.35;;;2.92;;
23628;SDS011;11991;57.150;-2.134;2022-10-31T15:57:51;10.00;;;3.53;;
23628;SDS011;11991;57.150;-2.134;2022-10-31T16:00:26;11.45;;;3.67;;
23628;SDS011;11991;57.150;-2.134;2022-10-31T16:03:04;12.13;;;3.28;;
23628;SDS011;11991;57.150;-2.134;2022-10-31T16:05:50;11.52;;;3.38;;
23628;SDS011;11991;57.150;-2.134;2022-10-31T16:10:57;14.90;;;3.67;;
23628;SDS011;11991;57.150;-2.134;2022-10-31T16:13:37;12.55;;;3.90;;
23628;SDS011;11991;57.150;-2.134;2022-10-31T16:16:19;8.10;;;2.60;;
23628;SDS011;11991;57.150;-2.134;2022-10-31T16:19:05;12.32;;;4.05;;
23628;SDS011;11991;57.150;-2.134;2022-10-31T16:21:40;6.65;;;3.20;;
23628;SDS011;11991;57.150;-2.134;2022-10-31T16:24:15;12.93;;;3.53;;
23628;SDS011;11991;57.150;-2.134;2022-10-31T16:26:46;9.43;;;3.25;;
23628;SDS011;11991;57.150;-2.134;2022-10-31T16:29:25;8.80;;;3.20;;
23628;SDS011;11991;57.150;-2.134;2022-10-31T16:31:53;6.20;;;2.65;;
23628;SDS011;11991;57.150;-2.134;2022-10-31T16:34:21;4.55;;;2.15;;
23628;SDS011;11991;57.150;-2.134;2022-10-31T16:36:52;9.63;;;3.17;;
23628;SDS011;11991;57.150;-2.134;2022-10-31T16:39:20;9.25;;;2.55;;
23628;SDS011;11991;57.150;-2.134;2022-10-31T16:41:52;9.18;;;3.55;;
23628;SDS011;11991;57.150;-2.134;2022-10-31T16:44:23;9.18;;;3.72;;
23628;SDS011;11991;57.150;-2.134;2022-10-31T16:49:36;8.43;;;2.90;;
23628;SDS011;11991;57.150;-2.134;2022-10-31T16:52:03;8.15;;;3.30;;
23628;SDS011;11991;57.150;-2.134;2022-10-31T16:54:31;5.05;;;2.65;;
23628;SDS011;11991;57.150;-2.134;2022-10-31T16:56:58;4.30;;;2.60;;
23628;SDS011;11991;57.150;-2.134;2022-10-31T16:59:27;7.63;;;3.58;;
23628;SDS011;11991;57.150;-2.134;2022-10-31T17:01:56;11.68;;;3.90;;
23628;SDS011;11991;57.150;-2.134;2022-10-31T17:04:24;6.22;;;2.65;;
23628;SDS011;11991;57.150;-2.134;2022-10-31T17:06:51;9.68;;;3.45;;
23628;SDS011;11991;57.150;-2.134;2022-10-31T17:09:18;9.38;;;3.42;;
23628;SDS011;11991;57.150;-2.134;2022-10-31T17:11:47;12.50;;;3.42;;
23628;SDS011;11991;57.150;-2.134;2022-10-31T17:14:17;11.55;;;3.78;;
23628;SDS011;11991;57.150;-2.134;2022-10-31T17:16:45;7.18;;;3.20;;
23628;SDS011;11991;57.150;-2.134;2022-10-31T17:19:12;13.20;;;4.28;;
23628;SDS011;11991;57.150;-2.134;2022-10-31T17:21:40;8.73;;;3.22;;
23628;SDS011;11991;57.150;-2.134;2022-10-31T17:24:10;9.30;;;4.18;;
23628;SDS011;11991;57.150;-2.134;2022-10-31T17:26:39;6.45;;;3.38;;
23628;SDS011;11991;57.150;-2.134;2022-10-31T17:29:07;6.50;;;2.63;;
23628;SDS011;11991;57.150;-2.134;2022-10-31T17:31:35;14.05;;;3.97;;
23628;SDS011;11991;57.150;-2.134;2022-10-31T17:34:04;8.60;;;3.20;;
23628;SDS011;11991;57.150;-2.134;2022-10-31T17:36:33;6.88;;;2.88;;
23628;SDS011;11991;57.150;-2.134;2022-10-31T17:39:00;6.57;;;2.65;;
23628;SDS011;11991;57.150;-2.134;2022-10-31T17:41:30;8.35;;;3.72;;
23628;SDS011;11991;57.150;-2.134;2022-10-31T17:43:58;9.88;;;3.83;;
23628;SDS011;11991;57.150;-2.134;2022-10-31T17:46:25;10.50;;;3.95;;
23628;SDS011;11991;57.150;-2.134;2022-10-31T17:48:53;8.10;;;3.85;;
23628;SDS011;11991;57.150;-2.134;2022-10-31T17:51:21;8.55;;;3.70;;
23628;SDS011;11991;57.150;-2.134;2022-10-31T17:53:48;7.40;;;3.80;;
23628;SDS011;11991;57.150;-2.134;2022-10-31T17:56:15;7.07;;;2.88;;
23628;SDS011;11991;57.150;-2.134;2022-10-31T17:58:43;9.15;;;2.90;;
23628;SDS011;11991;57.150;-2.134;2022-10-31T18:01:11;8.45;;;3.90;;
23628;SDS011;11991;57.150;-2.134;2022-10-31T18:03:41;6.68;;;2.83;;